createdAt,value
2018-09-12T01:00:31.156Z,1010.56
2018-09-12T01:01:31.100Z,1010.45
2018-09-12T01:02:31.091Z,1010.43
2018-09-12T01:03:31.127Z,1010.43
2018-09-12T01:04:31.072Z,1010.44
2018-09-12T01:05:31.056Z,1010.40
2018-09-12T01:06:31.047Z,1010.47
2018-09-12T01:07:31.034Z,1010.41
2018-09-12T01:08:31.068Z,1010.42
2018-09-12T01:09:31.020Z,1010.44
2018-09-12T01:10:31.003Z,1010.36
2018-09-12T01:11:31.010Z,1010.40
2018-09-12T01:12:30.980Z,1010.32
2018-09-12T01:13:31.016Z,1010.33
2018-09-12T01:14:30.963Z,1010.32
2018-09-12T01:15:30.948Z,1010.29
2018-09-12T01:16:30.938Z,1010.28
2018-09-12T01:17:30.921Z,1010.28
2018-09-12T01:18:30.958Z,1010.25
2018-09-12T01:19:30.901Z,1010.27
2018-09-12T01:20:30.890Z,1010.26
2018-09-12T01:21:30.879Z,1010.26
2018-09-12T01:22:30.886Z,1010.25
2018-09-12T01:23:30.905Z,1010.22
2018-09-12T01:24:30.844Z,1010.25
2018-09-12T01:25:30.842Z,1010.22
2018-09-12T01:26:30.820Z,1010.25
2018-09-12T01:27:30.815Z,1010.21
2018-09-12T01:28:30.867Z,1010.19
2018-09-12T01:29:30.789Z,1010.26
2018-09-12T01:30:30.782Z,1010.19
2018-09-12T01:31:30.766Z,1010.15
2018-09-12T01:32:30.760Z,1010.13
2018-09-12T01:33:30.807Z,1010.14
2018-09-12T01:34:30.732Z,1010.11
2018-09-12T01:35:30.727Z,1010.13
2018-09-12T01:36:30.712Z,1010.12
2018-09-12T01:37:30.701Z,1010.08
2018-09-12T01:38:30.692Z,1010.16
2018-09-12T01:39:30.732Z,1010.11
2018-09-12T01:40:30.666Z,1010.18
2018-09-12T01:41:30.663Z,1010.14
2018-09-12T01:42:30.644Z,1010.12
2018-09-12T01:43:30.642Z,1010.16
2018-09-12T01:44:30.682Z,1010.11
2018-09-12T01:45:30.652Z,1010.12
2018-09-12T01:46:30.599Z,1010.10
2018-09-12T01:47:30.595Z,1010.15
2018-09-12T01:48:30.578Z,1010.12
2018-09-12T01:49:30.613Z,1010.14
2018-09-12T01:50:30.569Z,1010.12
2018-09-12T01:51:30.544Z,1010.10
2018-09-12T01:52:30.533Z,1010.09
2018-09-12T01:53:30.536Z,1010.07
2018-09-12T01:54:30.559Z,1010.08
2018-09-12T01:55:30.520Z,1010.08
2018-09-12T01:56:30.490Z,1010.08
2018-09-12T01:57:30.480Z,1010.05
2018-09-12T01:58:30.471Z,1010.08
2018-09-12T01:59:30.502Z,1010.04
2018-09-12T02:00:30.449Z,1010.05
2018-09-12T02:01:30.434Z,1010.08
2018-09-12T02:02:30.425Z,1010.06
2018-09-12T02:03:30.414Z,1010.03
2018-09-12T02:04:30.451Z,1010.03
2018-09-12T02:05:30.391Z,1010.02
2018-09-12T02:06:30.382Z,1010.00
2018-09-12T02:07:30.370Z,1010.03
2018-09-12T02:08:30.357Z,1010.06
2018-09-12T02:09:30.397Z,1010.04
2018-09-12T02:10:30.337Z,1010.06
2018-09-12T02:11:30.326Z,1010.07
2018-09-12T02:12:30.317Z,1010.05
2018-09-12T02:13:30.303Z,1010.07
2018-09-12T02:14:30.345Z,1010.01
2018-09-12T02:15:30.282Z,1009.98
2018-09-12T02:16:30.268Z,1010.01
2018-09-12T02:17:30.262Z,1009.99
2018-09-12T02:18:30.244Z,1010.02
2018-09-12T02:19:30.283Z,1010.03
2018-09-12T02:20:30.224Z,1010.04
2018-09-12T02:21:30.216Z,1009.98
2018-09-12T02:22:30.224Z,1010.00
2018-09-12T02:23:30.195Z,1010.00
2018-09-12T02:24:30.236Z,1009.97
2018-09-12T02:25:30.169Z,1010.00
2018-09-12T02:26:30.161Z,1009.95
2018-09-12T02:27:30.147Z,1009.98
2018-09-12T02:28:30.136Z,1009.99
2018-09-12T02:29:30.180Z,1009.93
2018-09-12T02:30:30.114Z,1009.95
2018-09-12T02:31:30.102Z,1009.95
2018-09-12T02:32:30.096Z,1009.94
2018-09-12T02:33:30.082Z,1009.96
2018-09-12T02:34:30.122Z,1009.97
2018-09-12T02:35:30.076Z,1009.94
2018-09-12T02:36:30.050Z,1009.91
2018-09-12T02:37:30.037Z,1009.98
2018-09-12T02:38:30.024Z,1009.96
2018-09-12T02:39:30.060Z,1009.96
2018-09-12T02:40:30.007Z,1009.96
2018-09-12T02:41:29.991Z,1009.96
2018-09-12T02:42:29.981Z,1009.94
2018-09-12T02:43:29.981Z,1009.96
2018-09-12T02:44:30.004Z,1009.93
2018-09-12T02:45:29.947Z,1009.87
2018-09-12T02:46:29.950Z,1009.88
2018-09-12T02:47:29.924Z,1009.86
2018-09-12T02:48:29.914Z,1009.86
2018-09-12T02:49:29.948Z,1009.90
2018-09-12T02:50:29.896Z,1009.86
2018-09-12T02:51:29.882Z,1009.85
2018-09-12T02:52:29.886Z,1009.87
2018-09-12T02:53:29.858Z,1009.81
2018-09-12T02:54:29.901Z,1009.83
2018-09-12T02:55:29.850Z,1009.84
2018-09-12T02:56:29.825Z,1009.91
2018-09-12T02:57:29.814Z,1009.87
2018-09-12T02:58:29.825Z,1009.88
2018-09-12T02:59:29.836Z,1009.93
2018-09-12T03:00:29.781Z,1009.91
2018-09-12T03:01:29.784Z,1009.90
2018-09-12T03:02:29.757Z,1009.92
2018-09-12T03:03:29.759Z,1009.92
2018-09-12T03:04:29.784Z,1009.90
2018-09-12T03:05:29.734Z,1009.91
2018-09-12T03:06:29.720Z,1009.91
2018-09-12T03:07:29.704Z,1009.90
2018-09-12T03:08:29.694Z,1009.84
2018-09-12T03:09:29.742Z,1009.82
2018-09-12T03:10:29.711Z,1009.84
2018-09-12T03:11:29.656Z,1009.77
2018-09-12T03:12:29.655Z,1009.79
2018-09-12T03:13:29.636Z,1009.77
2018-09-12T03:14:29.671Z,1009.76
2018-09-12T03:15:29.647Z,1009.80
2018-09-12T03:16:29.600Z,1009.79
2018-09-12T03:17:29.591Z,1009.79
2018-09-12T03:18:29.588Z,1009.81
2018-09-12T03:19:29.614Z,1009.74
2018-09-12T03:20:29.589Z,1009.72
2018-09-12T03:21:29.561Z,1009.71
2018-09-12T03:22:29.543Z,1009.72
2018-09-12T03:23:29.524Z,1009.71
2018-09-12T03:24:29.567Z,1009.72
2018-09-12T03:25:29.506Z,1009.69
2018-09-12T03:26:29.496Z,1009.67
2018-09-12T03:27:29.499Z,1009.71
2018-09-12T03:28:29.469Z,1009.69
2018-09-12T03:29:29.522Z,1009.69
2018-09-12T03:30:29.445Z,1009.68
2018-09-12T03:31:29.437Z,1009.67
2018-09-12T03:32:29.444Z,1009.66
2018-09-12T03:33:29.438Z,1009.72
2018-09-12T03:34:29.454Z,1009.73
2018-09-12T03:35:29.390Z,1009.69
2018-09-12T03:36:29.380Z,1009.72
2018-09-12T03:37:29.371Z,1009.69
2018-09-12T03:38:29.371Z,1009.67
2018-09-12T03:39:29.391Z,1009.60
2018-09-12T03:40:29.334Z,1009.63
2018-09-12T03:41:29.321Z,1009.63
2018-09-12T03:42:29.317Z,1009.65
2018-09-12T03:43:29.304Z,1009.65
2018-09-12T03:44:29.337Z,1009.62
2018-09-12T03:45:29.277Z,1009.66
2018-09-12T03:46:29.275Z,1009.68
2018-09-12T03:47:29.256Z,1009.66
2018-09-12T03:48:29.246Z,1009.68
2018-09-12T03:49:29.289Z,1009.65
2018-09-12T03:50:29.226Z,1009.64
2018-09-12T03:51:29.212Z,1009.65
2018-09-12T03:52:29.201Z,1009.64
2018-09-12T03:53:29.188Z,1009.67
2018-09-12T03:54:29.179Z,1009.69
2018-09-12T03:55:29.213Z,1009.66
2018-09-12T03:56:29.159Z,1009.67
2018-09-12T03:57:29.166Z,1009.63
2018-09-12T03:58:29.135Z,1009.64
2018-09-12T03:59:29.122Z,1009.67
2018-09-12T04:00:29.156Z,1009.69
2018-09-12T04:01:29.104Z,1009.68
2018-09-12T04:02:29.094Z,1009.73
2018-09-12T04:03:29.079Z,1009.73
2018-09-12T04:04:29.068Z,1009.76
2018-09-12T04:05:29.103Z,1009.76
2018-09-12T04:06:29.044Z,1009.69
2018-09-12T04:07:29.034Z,1009.76
2018-09-12T04:08:29.023Z,1009.74
2018-09-12T04:09:29.020Z,1009.68
2018-09-12T04:10:29.048Z,1009.73
2018-09-12T04:11:28.996Z,1009.63
2018-09-12T04:12:28.983Z,1009.74
2018-09-12T04:13:28.970Z,1009.69
2018-09-12T04:14:28.965Z,1009.65
2018-09-12T04:15:28.991Z,1009.71
2018-09-12T04:16:28.935Z,1009.70
2018-09-12T04:17:28.923Z,1009.69
2018-09-12T04:18:28.909Z,1009.71
2018-09-12T04:19:28.903Z,1009.65
2018-09-12T04:20:28.943Z,1009.64
2018-09-12T04:21:28.874Z,1009.65
2018-09-12T04:22:28.868Z,1009.70
2018-09-12T04:23:28.854Z,1009.67
2018-09-12T04:24:28.849Z,1009.65
2018-09-12T04:25:28.886Z,1009.65
2018-09-12T04:26:28.827Z,1009.67
2018-09-12T04:27:28.807Z,1009.71
2018-09-12T04:28:28.796Z,1009.64
2018-09-12T04:29:28.785Z,1009.66
2018-09-12T04:30:28.826Z,1009.65
2018-09-12T04:31:28.788Z,1009.64
2018-09-12T04:32:28.753Z,1009.63
2018-09-12T04:33:28.747Z,1009.64
2018-09-12T04:34:28.736Z,1009.65
2018-09-12T04:35:28.766Z,1009.63
2018-09-12T04:36:28.708Z,1009.64
2018-09-12T04:37:28.701Z,1009.62
2018-09-12T04:38:28.686Z,1009.62
2018-09-12T04:39:28.672Z,1009.62
2018-09-12T04:40:28.708Z,1009.63
2018-09-12T04:41:28.655Z,1009.63
2018-09-12T04:42:28.640Z,1009.61
2018-09-12T04:43:28.640Z,1009.61
2018-09-12T04:44:28.620Z,1009.55
2018-09-12T04:45:28.668Z,1009.58
2018-09-12T04:46:28.598Z,1009.60
2018-09-12T04:47:28.590Z,1009.60
2018-09-12T04:48:28.613Z,1009.61
2018-09-12T04:49:28.561Z,1009.63
2018-09-12T04:50:28.594Z,1009.62
2018-09-12T04:51:28.540Z,1009.62
2018-09-12T04:52:28.528Z,1009.62
2018-09-12T04:53:28.528Z,1009.62
2018-09-12T04:54:28.509Z,1009.66
2018-09-12T04:55:28.557Z,1009.64
2018-09-12T04:56:28.482Z,1009.62
2018-09-12T04:57:28.470Z,1009.63
2018-09-12T04:58:28.459Z,1009.64
2018-09-12T04:59:28.451Z,1009.67
2018-09-12T05:00:28.490Z,1009.65
2018-09-12T05:01:28.426Z,1009.66
2018-09-12T05:02:28.415Z,1009.67
2018-09-12T05:03:28.412Z,1009.64
2018-09-12T05:04:28.401Z,1009.67
2018-09-12T05:05:28.427Z,1009.69
2018-09-12T05:06:28.389Z,1009.68
2018-09-12T05:07:28.358Z,1009.69
2018-09-12T05:08:28.346Z,1009.70
2018-09-12T05:09:28.345Z,1009.69
2018-09-12T05:10:28.369Z,1009.70
2018-09-12T05:11:28.314Z,1009.70
2018-09-12T05:12:28.342Z,1009.73
2018-09-12T05:13:28.292Z,1009.74
2018-09-12T05:14:28.283Z,1009.76
2018-09-12T05:15:28.321Z,1009.78
2018-09-12T05:16:28.339Z,1009.77
2018-09-12T05:17:28.247Z,1009.77
2018-09-12T05:18:28.237Z,1009.77
2018-09-12T05:19:28.223Z,1009.78
2018-09-12T05:20:28.211Z,1009.77
2018-09-12T05:21:28.246Z,1009.79
2018-09-12T05:22:28.190Z,1009.75
2018-09-12T05:23:28.179Z,1009.70
2018-09-12T05:24:28.168Z,1009.73
2018-09-12T05:25:28.154Z,1009.70
2018-09-12T05:26:28.211Z,1009.68
2018-09-12T05:27:28.137Z,1009.64
2018-09-12T05:28:28.164Z,1009.66
2018-09-12T05:29:28.114Z,1009.66
2018-09-12T05:30:28.102Z,1009.64
2018-09-12T05:31:28.135Z,1009.61
2018-09-12T05:32:28.087Z,1009.63
2018-09-12T05:33:28.069Z,1009.58
2018-09-12T05:34:28.057Z,1009.58
2018-09-12T05:35:28.048Z,1009.60
2018-09-12T05:36:28.219Z,1009.59
2018-09-12T05:37:28.023Z,1009.58
2018-09-12T05:38:28.019Z,1009.60
2018-09-12T05:39:27.998Z,1009.57
2018-09-12T05:40:27.988Z,1009.56
2018-09-12T05:41:28.024Z,1009.54
2018-09-12T05:42:27.965Z,1009.66
2018-09-12T05:43:27.967Z,1009.57
2018-09-12T05:44:27.944Z,1009.56
2018-09-12T05:45:27.941Z,1009.60
2018-09-12T05:46:27.967Z,1009.56
2018-09-12T05:47:27.910Z,1009.57
2018-09-12T05:48:27.900Z,1009.58
2018-09-12T05:49:27.886Z,1009.57
2018-09-12T05:50:27.881Z,1009.56
2018-09-12T05:51:27.911Z,1009.58
2018-09-12T05:52:27.853Z,1009.59
2018-09-12T05:53:27.838Z,1009.64
2018-09-12T05:54:27.829Z,1009.58
2018-09-12T05:55:27.819Z,1009.48
2018-09-12T05:56:27.851Z,1009.50
2018-09-12T05:57:27.821Z,1009.53
2018-09-12T05:58:27.792Z,1009.56
2018-09-12T05:59:27.774Z,1009.51
2018-09-12T06:00:27.784Z,1009.51
2018-09-12T06:01:27.803Z,1009.53
2018-09-12T06:02:27.749Z,1009.52
2018-09-12T06:03:27.735Z,1009.53
2018-09-12T06:04:27.721Z,1009.53
2018-09-12T06:05:27.720Z,1009.57
2018-09-12T06:06:27.791Z,1009.54
2018-09-12T06:07:27.690Z,1009.55
2018-09-12T06:08:27.759Z,1009.59
2018-09-12T06:09:27.715Z,1009.60
2018-09-12T06:10:27.705Z,1009.62
2018-09-12T06:11:27.709Z,1009.60
2018-09-12T06:12:27.631Z,1009.58
2018-09-12T06:13:27.621Z,1009.60
2018-09-12T06:14:27.608Z,1009.58
2018-09-12T06:15:27.595Z,1009.54
2018-09-12T06:16:27.633Z,1009.57
2018-09-12T06:17:27.592Z,1009.57
2018-09-12T06:18:27.561Z,1009.56
2018-09-12T06:19:27.565Z,1009.60
2018-09-12T06:20:27.549Z,1009.57
2018-09-12T06:21:27.592Z,1009.59
2018-09-12T06:22:27.528Z,1009.67
2018-09-12T06:23:27.691Z,1009.62
2018-09-12T06:24:27.523Z,1009.60
2018-09-12T06:25:27.598Z,1009.64
2018-09-12T06:26:27.529Z,1009.63
2018-09-12T06:27:27.466Z,1009.68
2018-09-12T06:28:27.476Z,1009.67
2018-09-12T06:29:27.469Z,1009.68
2018-09-12T06:30:27.431Z,1009.65
2018-09-12T06:31:27.513Z,1009.68
2018-09-12T06:32:27.453Z,1009.67
2018-09-12T06:33:27.401Z,1009.71
2018-09-12T06:34:27.393Z,1009.69
2018-09-12T06:35:27.581Z,1009.72
2018-09-12T06:36:27.461Z,1009.67
2018-09-12T06:37:27.395Z,1009.64
2018-09-12T06:38:27.412Z,1009.67
2018-09-12T06:39:27.339Z,1009.66
2018-09-12T06:40:27.346Z,1009.72
2018-09-12T06:41:27.348Z,1009.68
2018-09-12T06:42:27.369Z,1009.68
2018-09-12T06:43:27.285Z,1009.70
2018-09-12T06:44:28.608Z,1009.65
2018-09-12T06:45:27.269Z,1009.69
2018-09-12T06:46:27.252Z,1009.69
2018-09-12T06:47:27.283Z,1009.69
2018-09-12T06:48:27.234Z,1009.67
2018-09-12T06:49:27.220Z,1009.71
2018-09-12T06:50:27.238Z,1009.74
2018-09-12T06:51:27.206Z,1009.69
2018-09-12T06:52:27.238Z,1009.72
2018-09-12T06:53:27.173Z,1009.72
2018-09-12T06:54:27.178Z,1009.74
2018-09-12T06:55:27.172Z,1009.73
2018-09-12T06:56:27.165Z,1009.72
2018-09-12T06:57:27.176Z,1009.70
2018-09-12T06:58:27.121Z,1009.72
2018-09-12T06:59:27.108Z,1009.68
2018-09-12T07:00:27.164Z,1009.69
2018-09-12T07:01:27.094Z,1009.69
2018-09-12T07:02:27.124Z,1009.66
2018-09-12T07:03:27.066Z,1009.68
2018-09-12T07:04:27.183Z,1009.69
2018-09-12T07:05:27.053Z,1009.64
2018-09-12T07:06:27.029Z,1009.61
2018-09-12T07:07:27.071Z,1009.58
2018-09-12T07:08:27.010Z,1009.61
2018-09-12T07:09:27.019Z,1009.56
2018-09-12T07:10:27.076Z,1009.63
2018-09-12T07:11:27.955Z,1009.60
2018-09-12T07:12:27.018Z,1009.61
2018-09-12T07:13:26.964Z,1009.64
2018-09-12T07:14:26.946Z,1009.60
2018-09-12T07:15:26.930Z,1009.67
2018-09-12T07:16:26.950Z,1009.64
2018-09-12T07:17:26.990Z,1009.61
2018-09-12T07:18:26.927Z,1009.63
2018-09-12T07:19:26.884Z,1009.63
2018-09-12T07:20:26.877Z,1009.69
2018-09-12T07:21:26.861Z,1009.66
2018-09-12T07:22:26.896Z,1009.62
2018-09-12T07:23:26.840Z,1009.68
2018-09-12T07:24:26.927Z,1009.67
2018-09-12T07:25:26.820Z,1009.64
2018-09-12T07:26:26.809Z,1009.62
2018-09-12T07:27:26.874Z,1009.59
2018-09-12T07:28:26.788Z,1009.66
2018-09-12T07:29:26.817Z,1009.71
2018-09-12T07:30:26.771Z,1009.70
2018-09-12T07:31:26.751Z,1009.71
2018-09-12T07:32:26.798Z,1009.69
2018-09-12T07:33:26.730Z,1009.72
2018-09-12T07:34:26.799Z,1009.70
2018-09-12T07:35:26.716Z,1009.68
2018-09-12T07:36:26.718Z,1009.66
2018-09-12T07:37:26.736Z,1009.69
2018-09-12T07:38:26.683Z,1009.72
2018-09-12T07:39:26.704Z,1009.72
2018-09-12T07:40:26.658Z,1009.75
2018-09-12T07:41:26.653Z,1009.75
2018-09-12T07:42:26.678Z,1009.73
2018-09-12T07:43:26.625Z,1009.73
2018-09-12T07:44:26.612Z,1009.74
2018-09-12T07:45:26.726Z,1009.77
2018-09-12T07:46:26.598Z,1009.73
2018-09-12T07:47:26.634Z,1009.73
2018-09-12T07:48:26.565Z,1009.68
2018-09-12T07:49:26.556Z,1009.67
2018-09-12T07:50:26.556Z,1009.67
2018-09-12T07:51:26.532Z,1009.70
2018-09-12T07:52:26.523Z,1009.71
2018-09-12T07:53:26.558Z,1009.80
2018-09-12T07:54:26.500Z,1009.83
2018-09-12T07:55:26.495Z,1009.80
2018-09-12T07:56:26.608Z,1009.81
2018-09-12T07:57:26.468Z,1009.92
2018-09-12T07:58:26.504Z,1009.88
2018-09-12T07:59:26.448Z,1009.96
2018-09-12T08:00:26.484Z,1009.89
2018-09-12T08:01:26.423Z,1009.81
2018-09-12T08:02:26.412Z,1009.88
2018-09-12T08:03:26.452Z,1009.93
2018-09-12T08:04:26.390Z,1009.82
2018-09-12T08:05:26.380Z,1009.82
2018-09-12T08:06:26.369Z,1009.86
2018-09-12T08:07:26.356Z,1009.85
2018-09-12T08:08:26.389Z,1009.87
2018-09-12T08:09:26.343Z,1009.86
2018-09-12T08:10:26.329Z,1009.78
2018-09-12T08:11:26.311Z,1009.79
2018-09-12T08:12:26.309Z,1009.78
2018-09-12T08:13:26.333Z,1009.81
2018-09-12T08:14:26.282Z,1009.81
2018-09-12T08:15:26.273Z,1009.77
2018-09-12T08:16:26.256Z,1009.72
2018-09-12T08:17:26.248Z,1009.77
2018-09-12T08:18:26.280Z,1009.73
2018-09-12T08:19:26.226Z,1009.76
2018-09-12T08:20:26.224Z,1009.75
2018-09-12T08:21:26.208Z,1009.74
2018-09-12T08:22:26.190Z,1009.75
2018-09-12T08:23:26.265Z,1009.72
2018-09-12T08:24:26.174Z,1009.73
2018-09-12T08:25:26.159Z,1009.68
2018-09-12T08:26:26.152Z,1009.67
2018-09-12T08:27:26.142Z,1009.62
2018-09-12T08:28:26.169Z,1009.67
2018-09-12T08:29:26.113Z,1009.69
2018-09-12T08:30:26.102Z,1009.70
2018-09-12T08:31:26.093Z,1009.72
2018-09-12T08:32:26.096Z,1009.68
2018-09-12T08:33:26.143Z,1009.70
2018-09-12T08:34:26.060Z,1009.68
2018-09-12T08:35:26.051Z,1009.66
2018-09-12T08:36:26.052Z,1009.68
2018-09-12T08:37:26.031Z,1009.63
2018-09-12T08:38:26.063Z,1009.63
2018-09-12T08:39:26.004Z,1009.64
2018-09-12T08:40:26.008Z,1009.69
2018-09-12T08:41:25.993Z,1009.69
2018-09-12T08:42:25.975Z,1009.71
2018-09-12T08:43:26.005Z,1009.76
2018-09-12T08:44:25.949Z,1009.75
2018-09-12T08:45:25.950Z,1009.71
2018-09-12T08:46:25.926Z,1009.75
2018-09-12T08:47:25.914Z,1009.67
2018-09-12T08:48:25.956Z,1009.71
2018-09-12T08:49:25.894Z,1009.71
2018-09-12T08:50:25.885Z,1009.68
2018-09-12T08:51:25.874Z,1009.72
2018-09-12T08:52:25.860Z,1009.69
2018-09-12T08:53:25.893Z,1009.66
2018-09-12T08:54:25.839Z,1009.69
2018-09-12T08:55:25.925Z,1009.64
2018-09-12T08:56:25.918Z,1009.65
2018-09-12T08:57:25.804Z,1009.67
2018-09-12T08:58:25.915Z,1009.67
2018-09-12T08:59:25.795Z,1009.67
2018-09-12T09:00:25.828Z,1009.65
2018-09-12T09:01:25.837Z,1009.60
2018-09-12T09:02:25.752Z,1009.58
2018-09-12T09:03:25.786Z,1009.57
2018-09-12T09:04:25.727Z,1009.56
2018-09-12T09:05:25.723Z,1009.54
2018-09-12T09:06:25.720Z,1009.59
2018-09-12T09:07:25.993Z,1009.59
2018-09-12T09:08:25.881Z,1009.53
2018-09-12T09:09:25.675Z,1009.62
2018-09-12T09:10:26.115Z,1009.57
2018-09-12T09:11:25.652Z,1009.57
2018-09-12T09:12:25.654Z,1009.52
2018-09-12T09:13:25.675Z,1009.50
2018-09-12T09:14:25.619Z,1009.54
2018-09-12T09:15:25.629Z,1009.56
2018-09-12T09:16:26.262Z,1009.57
2018-09-12T09:17:25.650Z,1009.54
2018-09-12T09:18:26.409Z,1009.54
2018-09-12T09:19:25.572Z,1009.44
2018-09-12T09:20:25.559Z,1009.49
2018-09-12T09:21:25.671Z,1009.51
2018-09-12T09:22:25.608Z,1009.52
2018-09-12T09:23:25.919Z,1009.56
2018-09-12T09:24:25.512Z,1009.48
2018-09-12T09:25:26.298Z,1009.51
2018-09-12T09:26:26.441Z,1009.52
2018-09-12T09:27:25.629Z,1009.50
2018-09-12T09:28:26.240Z,1009.54
2018-09-12T09:29:25.537Z,1009.50
2018-09-12T09:30:26.265Z,1009.54
2018-09-12T09:31:25.454Z,1009.51
2018-09-12T09:32:25.422Z,1009.49
2018-09-12T09:33:25.585Z,1009.49
2018-09-12T09:34:25.399Z,1009.48
2018-09-12T09:35:25.502Z,1009.52
2018-09-12T09:36:25.385Z,1009.50
2018-09-12T09:37:25.368Z,1009.50
2018-09-12T09:38:25.404Z,1009.49
2018-09-12T09:39:25.368Z,1009.53
2018-09-12T09:40:25.333Z,1009.52
2018-09-12T09:41:25.323Z,1009.55
2018-09-12T09:42:25.317Z,1009.55
2018-09-12T09:43:25.357Z,1009.52
2018-09-12T09:44:25.311Z,1009.54
2018-09-12T09:45:25.296Z,1009.48
2018-09-12T09:46:25.276Z,1009.46
2018-09-12T09:47:25.258Z,1009.47
2018-09-12T09:48:25.340Z,1009.48
2018-09-12T09:49:25.237Z,1009.45
2018-09-12T09:50:25.295Z,1009.44
2018-09-12T09:51:25.212Z,1009.47
2018-09-12T09:52:25.204Z,1009.47
2018-09-12T09:53:25.235Z,1009.42
2018-09-12T09:54:25.184Z,1009.40
2018-09-12T09:55:25.169Z,1009.46
2018-09-12T09:56:25.157Z,1009.41
2018-09-12T09:57:25.147Z,1009.38
2018-09-12T09:58:25.251Z,1009.33
2018-09-12T09:59:25.172Z,1009.35
2018-09-12T10:00:25.160Z,1009.38
2018-09-12T10:01:25.123Z,1009.40
2018-09-12T10:02:25.091Z,1009.32
2018-09-12T10:03:25.080Z,1009.36
2018-09-12T10:04:25.114Z,1009.35
2018-09-12T10:05:25.320Z,1009.35
2018-09-12T10:06:25.046Z,1009.37
2018-09-12T10:07:25.035Z,1009.37
2018-09-12T10:08:25.027Z,1009.35
2018-09-12T10:09:25.061Z,1009.28
2018-09-12T10:10:25.006Z,1009.34
2018-09-12T10:11:24.997Z,1009.33
2018-09-12T10:12:24.978Z,1009.30
2018-09-12T10:13:25.039Z,1009.26
2018-09-12T10:14:25.013Z,1009.26
2018-09-12T10:15:24.946Z,1009.25
2018-09-12T10:16:24.934Z,1009.29
2018-09-12T10:17:24.926Z,1009.30
2018-09-12T10:18:24.917Z,1009.27
2018-09-12T10:19:24.949Z,1009.15
2018-09-12T10:20:24.890Z,1009.15
2018-09-12T10:21:24.881Z,1009.14
2018-09-12T10:22:24.871Z,1009.19
2018-09-12T10:23:24.863Z,1009.13
2018-09-12T10:24:24.983Z,1009.20
2018-09-12T10:25:24.838Z,1009.16
2018-09-12T10:26:24.828Z,1009.17
2018-09-12T10:27:24.895Z,1009.09
2018-09-12T10:28:24.805Z,1009.06
2018-09-12T10:29:24.840Z,1009.09
2018-09-12T10:30:24.780Z,1009.07
2018-09-12T10:31:24.772Z,1009.05
2018-09-12T10:32:24.761Z,1009.08
2018-09-12T10:33:24.750Z,1009.08
2018-09-12T10:34:24.792Z,1009.08
2018-09-12T10:35:24.738Z,1009.07
2018-09-12T10:36:24.719Z,1009.06
2018-09-12T10:37:24.704Z,1009.02
2018-09-12T10:38:24.695Z,1008.97
2018-09-12T10:39:24.734Z,1009.02
2018-09-12T10:40:24.676Z,1009.03
2018-09-12T10:41:24.663Z,1009.02
2018-09-12T10:42:24.663Z,1009.00
2018-09-12T10:43:24.643Z,1009.09
2018-09-12T10:44:24.680Z,1009.04
2018-09-12T10:45:24.621Z,1009.09
2018-09-12T10:46:24.617Z,1009.00
2018-09-12T10:47:24.598Z,1008.93
2018-09-12T10:48:24.631Z,1008.97
2018-09-12T10:49:24.626Z,1008.97
2018-09-12T10:50:24.565Z,1008.93
2018-09-12T10:51:24.555Z,1008.83
2018-09-12T10:52:24.546Z,1008.87
2018-09-12T10:53:24.537Z,1008.89
2018-09-12T10:54:24.570Z,1008.85
2018-09-12T10:55:24.515Z,1008.81
2018-09-12T10:56:24.507Z,1008.81
2018-09-12T10:57:24.494Z,1008.83
2018-09-12T10:58:24.488Z,1008.74
2018-09-12T10:59:24.520Z,1008.76
2018-09-12T11:00:24.459Z,1008.77
2018-09-12T11:01:24.453Z,1008.76
2018-09-12T11:02:24.438Z,1008.78
2018-09-12T11:03:24.435Z,1008.79
2018-09-12T11:04:24.577Z,1008.77
2018-09-12T11:05:24.405Z,1008.79
2018-09-12T11:06:24.392Z,1008.77
2018-09-12T11:07:24.380Z,1008.73
2018-09-12T11:08:24.370Z,1008.70
2018-09-12T11:09:24.855Z,1008.74
2018-09-12T11:10:24.349Z,1008.71
2018-09-12T11:11:24.340Z,1008.68
2018-09-12T11:12:24.328Z,1008.68
2018-09-12T11:13:24.315Z,1008.65
2018-09-12T11:14:24.313Z,1008.64
2018-09-12T11:15:24.385Z,1008.61
2018-09-12T11:16:24.293Z,1008.64
2018-09-12T11:17:24.277Z,1008.62
2018-09-12T11:18:24.262Z,1008.60
2018-09-12T11:19:24.254Z,1008.54
2018-09-12T11:20:24.285Z,1008.57
2018-09-12T11:21:24.280Z,1008.50
2018-09-12T11:22:24.219Z,1008.46
2018-09-12T11:23:24.218Z,1008.50
2018-09-12T11:24:24.199Z,1008.54
2018-09-12T11:25:24.237Z,1008.53
2018-09-12T11:26:24.176Z,1008.48
2018-09-12T11:27:24.214Z,1008.47
2018-09-12T11:28:24.156Z,1008.50
2018-09-12T11:29:24.145Z,1008.47
2018-09-12T11:30:24.180Z,1008.48
2018-09-12T11:31:24.123Z,1008.47
2018-09-12T11:32:24.112Z,1008.45
2018-09-12T11:33:24.112Z,1008.39
2018-09-12T11:34:24.216Z,1008.35
2018-09-12T11:35:24.138Z,1008.41
2018-09-12T11:36:24.476Z,1008.36
2018-09-12T11:37:24.201Z,1008.34
2018-09-12T11:38:24.054Z,1008.37
2018-09-12T11:39:24.164Z,1008.30
2018-09-12T11:40:24.071Z,1008.39
2018-09-12T11:41:24.024Z,1008.35
2018-09-12T11:42:24.006Z,1008.30
2018-09-12T11:43:23.993Z,1008.27
2018-09-12T11:44:23.984Z,1008.25
2018-09-12T11:45:24.017Z,1008.27
2018-09-12T11:46:23.963Z,1008.31
2018-09-12T11:47:23.951Z,1008.24
2018-09-12T11:48:23.938Z,1008.24
2018-09-12T11:49:23.928Z,1008.26
2018-09-12T11:50:23.961Z,1008.22
2018-09-12T11:51:23.909Z,1008.18
2018-09-12T11:52:23.896Z,1008.14
2018-09-12T11:53:23.884Z,1008.17
2018-09-12T11:54:23.877Z,1008.15
2018-09-12T11:55:25.102Z,1008.14
2018-09-12T11:56:23.854Z,1008.09
2018-09-12T11:57:23.850Z,1008.09
2018-09-12T11:58:23.836Z,1008.12
2018-09-12T11:59:23.820Z,1008.10
2018-09-12T12:00:23.857Z,1008.10
2018-09-12T12:01:23.795Z,1008.10
2018-09-12T12:02:24.514Z,1008.05
2018-09-12T12:03:23.783Z,1008.15
2018-09-12T12:04:23.767Z,1008.15
2018-09-12T12:05:23.801Z,1008.11
2018-09-12T12:06:23.743Z,1008.16
2018-09-12T12:07:23.733Z,1008.13
2018-09-12T12:08:23.724Z,1008.09
2018-09-12T12:09:23.713Z,1008.09
2018-09-12T12:10:23.750Z,1008.09
2018-09-12T12:11:23.700Z,1008.05
2018-09-12T12:12:23.684Z,1008.02
2018-09-12T12:13:23.671Z,1008.09
2018-09-12T12:14:23.713Z,1008.04
2018-09-12T12:15:25.533Z,1008.02
2018-09-12T12:16:23.666Z,1008.03
2018-09-12T12:17:23.627Z,1007.99
2018-09-12T12:18:24.309Z,1007.97
2018-09-12T12:19:23.698Z,1007.96
2018-09-12T12:20:23.725Z,1007.86
2018-09-12T12:21:23.658Z,1007.91
2018-09-12T12:22:23.644Z,1007.82
2018-09-12T12:23:23.656Z,1007.85
2018-09-12T12:24:23.558Z,1007.79
2018-09-12T12:25:23.649Z,1007.84
2018-09-12T12:26:23.561Z,1007.85
2018-09-12T12:27:23.596Z,1007.79
2018-09-12T12:28:23.574Z,1007.82
2018-09-12T12:29:23.513Z,1007.75
2018-09-12T12:30:23.541Z,1007.80
2018-09-12T12:31:23.486Z,1007.80
2018-09-12T12:32:23.482Z,1007.81
2018-09-12T12:33:23.463Z,1007.79
2018-09-12T12:34:23.460Z,1007.79
2018-09-12T12:35:23.499Z,1007.72
2018-09-12T12:36:23.434Z,1007.75
2018-09-12T12:37:23.425Z,1007.81
2018-09-12T12:38:23.415Z,1007.74
2018-09-12T12:39:23.416Z,1007.59
2018-09-12T12:40:23.441Z,1007.49
2018-09-12T12:41:23.482Z,1007.47
2018-09-12T12:42:23.373Z,1007.47
2018-09-12T12:43:23.364Z,1007.45
2018-09-12T12:44:23.354Z,1007.56
2018-09-12T12:45:23.389Z,1007.53
2018-09-12T12:46:23.333Z,1007.54
2018-09-12T12:47:23.329Z,1007.50
2018-09-12T12:48:23.313Z,1007.50
2018-09-12T12:49:23.301Z,1007.51
2018-09-12T12:50:23.337Z,1007.45
2018-09-12T12:51:23.292Z,1007.41
2018-09-12T12:52:23.271Z,1007.45
2018-09-12T12:53:23.264Z,1007.38
2018-09-12T12:54:23.274Z,1007.41
2018-09-12T12:55:23.289Z,1007.38
2018-09-12T12:56:23.235Z,1007.31
2018-09-12T12:57:23.234Z,1007.32
2018-09-12T12:58:23.215Z,1007.40
2018-09-12T12:59:23.200Z,1007.41
2018-09-12T13:00:23.233Z,1007.35
2018-09-12T13:01:23.176Z,1007.42
2018-09-12T13:02:23.165Z,1007.40
2018-09-12T13:03:23.740Z,1007.40
2018-09-12T13:04:23.200Z,1007.27
2018-09-12T13:05:23.184Z,1007.30